createdAt,value
2018-02-17T00:02:20.914Z,30.27
2018-02-17T00:04:48.526Z,29.23
2018-02-17T00:07:16.841Z,29.33
2018-02-17T00:09:44.365Z,24.60
2018-02-17T00:12:12.680Z,30.53
2018-02-17T00:14:40.974Z,28.10
2018-02-17T00:17:08.535Z,27.87
2018-02-17T00:19:36.060Z,26.53
2018-02-17T00:22:03.605Z,31.40
2018-02-17T00:24:31.903Z,30.30
2018-02-17T00:26:59.449Z,29.67
2018-02-17T00:29:27.751Z,30.50
2018-02-17T00:31:55.299Z,34.00
2018-02-17T00:34:22.825Z,29.00
2018-02-17T00:36:50.375Z,37.27
2018-02-17T00:39:17.919Z,31.50
2018-02-17T00:41:45.467Z,29.80
2018-02-17T00:44:12.991Z,28.73
2018-02-17T00:46:41.296Z,35.70
2018-02-17T00:49:08.832Z,33.80
2018-02-17T00:51:37.152Z,31.30
2018-02-17T00:54:04.679Z,33.13
2018-02-17T00:56:32.986Z,33.53
2018-02-17T00:59:00.513Z,30.07
2018-02-17T01:01:28.460Z,32.47
2018-02-17T01:03:55.989Z,30.50
2018-02-17T01:06:23.540Z,29.30
2018-02-17T01:08:51.074Z,34.70
2018-02-17T01:11:19.711Z,33.20
2018-02-17T01:13:47.232Z,34.43
2018-02-17T01:16:15.177Z,32.63
2018-02-17T01:18:43.099Z,34.30
2018-02-17T01:21:11.392Z,37.70
2018-02-17T01:23:38.924Z,40.37
2018-02-17T01:26:06.464Z,41.63
2018-02-17T01:28:34.771Z,34.23
2018-02-17T01:31:02.294Z,32.80
2018-02-17T01:33:30.615Z,36.67
2018-02-17T01:35:58.138Z,32.17
2018-02-17T01:38:26.456Z,32.23
2018-02-17T01:40:53.981Z,31.20
2018-02-17T01:43:22.301Z,33.27
2018-02-17T01:45:50.221Z,35.70
2018-02-17T01:48:18.530Z,35.50
2018-02-17T01:50:46.058Z,30.40
2018-02-17T01:53:14.376Z,32.77
2018-02-17T01:55:41.911Z,27.40
2018-02-17T01:58:10.220Z,28.20
2018-02-17T02:00:37.750Z,34.10
2018-02-17T02:03:06.078Z,25.60
2018-02-17T02:05:33.615Z,31.80
2018-02-17T02:08:01.161Z,27.83
2018-02-17T02:10:28.685Z,33.77
2018-02-17T02:12:56.244Z,37.10
2018-02-17T02:15:26.189Z,35.87
2018-02-17T02:17:54.496Z,39.40
2018-02-17T02:20:22.014Z,33.90
2018-02-17T02:22:50.328Z,42.90
2018-02-17T02:25:17.887Z,42.97
2018-02-17T02:27:45.432Z,36.60
2018-02-17T02:30:13.345Z,39.40
2018-02-17T02:32:40.864Z,36.27
2018-02-17T02:35:08.417Z,36.77
2018-02-17T02:37:36.205Z,36.20
2018-02-17T02:40:03.746Z,42.60
2018-02-17T02:42:32.050Z,47.17
2018-02-17T02:44:59.594Z,38.60
2018-02-17T02:47:27.320Z,47.63
2018-02-17T02:49:54.862Z,39.50
2018-02-17T02:52:22.387Z,45.17
2018-02-17T02:54:49.938Z,44.47
2018-02-17T02:57:17.462Z,41.40
2018-02-17T02:59:45.003Z,47.73
2018-02-17T03:02:12.534Z,39.77
2018-02-17T03:04:40.849Z,42.83
2018-02-17T03:07:08.384Z,41.13
2018-02-17T03:09:35.941Z,39.97
2018-02-17T03:12:03.481Z,39.80
2018-02-17T03:14:31.034Z,40.07
2018-02-17T03:16:58.826Z,35.40
2018-02-17T03:19:26.369Z,39.93
2018-02-17T03:21:53.901Z,43.40
2018-02-17T03:24:21.455Z,38.60
2018-02-17T03:26:49.758Z,39.27
2018-02-17T03:29:17.311Z,46.60
2018-02-17T03:31:44.841Z,40.20
2018-02-17T03:34:12.812Z,54.67
2018-02-17T03:36:40.355Z,45.83
2018-02-17T03:39:07.893Z,40.33
2018-02-17T03:41:35.416Z,41.00
2018-02-17T03:44:03.721Z,44.33
2018-02-17T03:46:31.326Z,46.33
2018-02-17T03:48:58.855Z,36.70
2018-02-17T03:51:26.406Z,40.63
2018-02-17T03:53:53.926Z,46.67
2018-02-17T03:56:22.236Z,48.23
2018-02-17T03:58:50.534Z,41.73
2018-02-17T04:01:18.074Z,41.90
2018-02-17T04:03:45.590Z,38.77
2018-02-17T04:06:13.133Z,36.53
2018-02-17T04:08:40.658Z,48.30
2018-02-17T04:11:08.200Z,50.67
2018-02-17T04:13:35.724Z,45.67
2018-02-17T04:16:04.029Z,49.97
2018-02-17T04:18:31.561Z,38.60
2018-02-17T04:20:59.116Z,35.57
2018-02-17T04:23:26.646Z,32.90
2018-02-17T04:25:54.197Z,33.53
2018-02-17T04:28:21.721Z,35.70
2018-02-17T04:30:50.038Z,30.93
2018-02-17T04:33:17.565Z,33.03
2018-02-17T04:35:45.101Z,28.67
2018-02-17T04:38:12.627Z,33.23
2018-02-17T04:40:45.869Z,33.10
2018-02-17T04:43:15.610Z,31.97
2018-02-17T04:45:47.954Z,28.90
2018-02-17T04:48:31.121Z,26.77
2018-02-17T04:51:06.140Z,29.77
2018-02-17T04:53:39.337Z,30.63
2018-02-17T04:56:23.541Z,30.43
2018-02-17T04:59:10.530Z,23.77
2018-02-17T05:01:54.760Z,29.57
2018-02-17T05:04:24.101Z,28.80
2018-02-17T05:06:52.101Z,23.97
2018-02-17T05:09:20.018Z,24.07
2018-02-17T05:11:47.566Z,29.37
2018-02-17T05:14:30.756Z,21.80
2018-02-17T05:17:16.982Z,22.60
2018-02-17T05:19:54.434Z,27.80
2018-02-17T05:22:25.605Z,24.97
2018-02-17T05:24:54.457Z,24.70
2018-02-17T05:27:37.670Z,21.87
2018-02-17T05:30:08.996Z,24.93
2018-02-17T05:32:49.293Z,23.07
2018-02-17T05:35:21.452Z,25.03
2018-02-17T05:37:48.993Z,24.10
2018-02-17T05:40:31.409Z,21.77
2018-02-17T05:42:58.957Z,26.10
2018-02-17T05:45:26.493Z,22.43
2018-02-17T05:47:59.685Z,22.37
2018-02-17T05:50:27.667Z,24.80
2018-02-17T05:52:55.975Z,23.77
2018-02-17T05:55:23.899Z,26.23
2018-02-17T05:57:51.449Z,22.37
2018-02-17T06:00:18.981Z,24.30
2018-02-17T06:02:47.300Z,24.40
2018-02-17T06:05:14.849Z,21.57
2018-02-17T06:07:42.788Z,23.47
2018-02-17T06:10:10.475Z,23.17
2018-02-17T06:12:38.023Z,20.20
2018-02-17T06:15:05.559Z,24.17
2018-02-17T06:17:33.109Z,23.90
2018-02-17T06:20:00.638Z,20.23
2018-02-17T06:22:28.153Z,22.00
2018-02-17T06:24:56.462Z,21.90
2018-02-17T06:27:23.993Z,22.90
2018-02-17T06:29:51.964Z,21.70
2018-02-17T06:32:20.253Z,19.60
2018-02-17T06:34:47.788Z,18.77
2018-02-17T06:37:15.334Z,19.23
2018-02-17T06:39:42.890Z,21.07
2018-02-17T06:42:10.411Z,21.70
2018-02-17T06:44:37.962Z,23.33
2018-02-17T06:47:05.498Z,19.53
2018-02-17T06:49:33.048Z,20.27
2018-02-17T06:52:00.577Z,23.00
2018-02-17T06:54:28.126Z,19.20
2018-02-17T06:56:55.656Z,19.90
2018-02-17T06:59:23.206Z,18.50
2018-02-17T07:01:50.753Z,19.80
2018-02-17T07:04:19.160Z,18.80
2018-02-17T07:06:46.717Z,15.90
2018-02-17T07:09:14.649Z,20.40
2018-02-17T07:11:42.937Z,15.90
2018-02-17T07:14:11.266Z,19.50
2018-02-17T07:16:38.800Z,19.20
2018-02-17T07:19:06.740Z,31.07
2018-02-17T07:21:35.038Z,29.40
2018-02-17T07:24:02.582Z,25.13
2018-02-17T07:26:30.104Z,23.40
2018-02-17T07:28:57.648Z,23.73
2018-02-17T07:31:25.602Z,18.93
2018-02-17T07:33:53.990Z,22.03
2018-02-17T07:36:21.536Z,27.90
2018-02-17T07:38:49.078Z,27.50
2018-02-17T07:41:17.398Z,22.80
2018-02-17T07:43:44.925Z,20.23
2018-02-17T07:46:12.477Z,22.57
2018-02-17T07:48:40.791Z,27.37
2018-02-17T07:51:08.330Z,20.10
2018-02-17T07:53:35.865Z,23.53
2018-02-17T07:56:04.185Z,19.60
2018-02-17T07:58:31.719Z,19.70
2018-02-17T08:00:59.265Z,18.90
2018-02-17T08:03:27.566Z,21.10
2018-02-17T08:05:55.118Z,18.10
2018-02-17T08:08:22.651Z,23.00
2018-02-17T08:10:50.601Z,19.50
2018-02-17T08:13:18.900Z,20.07
2018-02-17T08:15:46.450Z,20.60
2018-02-17T08:18:13.970Z,16.67
2018-02-17T08:20:41.518Z,17.87
2018-02-17T08:23:09.052Z,23.77
2018-02-17T08:25:37.370Z,20.20
2018-02-17T08:28:04.906Z,18.73
2018-02-17T08:30:32.451Z,20.60
2018-02-17T08:33:00.744Z,27.53
2018-02-17T08:35:28.291Z,48.17
2018-02-17T08:37:56.607Z,36.23
2018-02-17T08:40:24.252Z,68.53
2018-02-17T08:42:51.782Z,33.33
2018-02-17T08:45:19.312Z,29.80
2018-02-17T08:47:46.844Z,29.80
2018-02-17T08:50:14.381Z,21.63
2018-02-17T08:52:41.926Z,21.17
2018-02-17T08:55:10.220Z,22.73
2018-02-17T08:57:37.972Z,20.67
2018-02-17T09:00:05.528Z,24.50
2018-02-17T09:02:33.838Z,19.17
2018-02-17T09:05:01.894Z,19.83
2018-02-17T09:07:29.437Z,18.47
2018-02-17T09:09:58.126Z,20.50
2018-02-17T09:12:26.429Z,19.67
2018-02-17T09:14:54.345Z,21.50
2018-02-17T09:17:21.891Z,23.50
2018-02-17T09:19:49.442Z,27.63
2018-02-17T09:22:16.977Z,22.37
2018-02-17T09:24:44.506Z,20.70
2018-02-17T09:27:12.045Z,21.97
2018-02-17T09:29:39.572Z,20.27
2018-02-17T09:32:07.117Z,19.40
2018-02-17T09:34:34.656Z,18.57
2018-02-17T09:37:02.962Z,17.03
2018-02-17T09:39:30.477Z,16.87
2018-02-17T09:41:58.097Z,16.93
2018-02-17T09:44:26.049Z,16.20
2018-02-17T09:46:53.982Z,17.80
2018-02-17T09:49:21.500Z,16.10
2018-02-17T09:51:49.047Z,19.03
2018-02-17T09:54:16.574Z,23.00
2018-02-17T09:56:44.853Z,20.70
2018-02-17T09:59:12.393Z,19.70
2018-02-17T10:01:39.930Z,20.70
2018-02-17T10:04:07.473Z,17.37
2018-02-17T10:06:34.995Z,18.70
2018-02-17T10:09:02.586Z,18.87
2018-02-17T10:11:30.121Z,19.17
2018-02-17T10:13:57.682Z,18.77
2018-02-17T10:16:25.219Z,21.90
2018-02-17T10:18:52.774Z,18.87
2018-02-17T10:21:21.878Z,18.47
2018-02-17T10:23:49.822Z,17.30
2018-02-17T10:26:17.341Z,15.50
2018-02-17T10:28:44.894Z,19.67
2018-02-17T10:31:13.730Z,20.13
2018-02-17T10:33:41.289Z,16.30
2018-02-17T10:36:10.682Z,16.87
2018-02-17T10:38:39.209Z,20.53
2018-02-17T10:41:07.511Z,22.50
2018-02-17T10:43:35.829Z,17.13
2018-02-17T10:46:03.357Z,17.90
2018-02-17T10:48:31.319Z,16.63
2018-02-17T10:50:59.637Z,21.17
2018-02-17T10:53:27.954Z,23.60
2018-02-17T10:55:56.267Z,18.93
2018-02-17T10:58:23.820Z,28.23
2018-02-17T11:00:51.984Z,22.13
2018-02-17T11:03:20.655Z,19.50
2018-02-17T11:05:49.797Z,17.13
2018-02-17T11:08:18.077Z,14.90
2018-02-17T11:10:46.389Z,18.90
2018-02-17T11:13:13.979Z,20.07
2018-02-17T11:15:41.933Z,17.10
2018-02-17T11:18:10.232Z,17.33
2018-02-17T11:20:38.556Z,17.03
2018-02-17T11:23:06.849Z,18.10
2018-02-17T11:25:34.410Z,21.93
2018-02-17T11:28:03.188Z,16.70
2018-02-17T11:30:31.509Z,23.33
2018-02-17T11:32:59.970Z,28.03
2018-02-17T11:35:27.904Z,25.87
2018-02-17T11:37:55.824Z,23.17
2018-02-17T11:40:24.126Z,22.93
2018-02-17T11:42:52.420Z,22.80
2018-02-17T11:45:21.168Z,22.93
2018-02-17T11:47:49.468Z,19.10
2018-02-17T11:50:17.408Z,23.27
2018-02-17T11:52:45.716Z,17.87
2018-02-17T11:55:13.258Z,15.23
2018-02-17T11:57:41.568Z,20.33
2018-02-17T12:00:09.888Z,15.30
2018-02-17T12:02:38.190Z,16.43
2018-02-17T12:05:06.822Z,16.23
2018-02-17T12:07:35.000Z,14.40
2018-02-17T12:10:03.339Z,13.60
2018-02-17T12:12:31.913Z,15.43
2018-02-17T12:14:59.934Z,12.27
2018-02-17T12:17:28.201Z,12.10
2018-02-17T12:19:56.543Z,12.60
2018-02-17T12:22:24.109Z,10.87
2018-02-17T12:24:52.953Z,14.93
2018-02-17T12:27:20.569Z,12.63
2018-02-17T12:29:48.873Z,9.03
2018-02-17T12:32:16.848Z,11.70
2018-02-17T12:34:44.395Z,10.23
2018-02-17T12:37:12.346Z,11.10
2018-02-17T12:39:40.658Z,12.23
2018-02-17T12:42:08.995Z,15.73
2018-02-17T12:44:37.306Z,19.30
2018-02-17T12:47:05.635Z,15.00
2018-02-17T12:49:33.935Z,14.63
2018-02-17T12:52:01.480Z,14.87
2018-02-17T12:54:29.402Z,15.40
2018-02-17T12:56:57.726Z,15.53
2018-02-17T12:59:26.012Z,16.10
2018-02-17T13:01:55.570Z,13.70
2018-02-17T13:04:23.949Z,14.37
2018-02-17T13:06:52.434Z,16.03
2018-02-17T13:09:19.959Z,12.73
2018-02-17T13:11:49.465Z,17.73
2018-02-17T13:14:18.221Z,15.53
2018-02-17T13:16:46.161Z,17.23
2018-02-17T13:19:14.450Z,15.80
2018-02-17T13:21:42.766Z,13.43
2018-02-17T13:24:13.466Z,13.90
2018-02-17T13:26:41.966Z,17.60
2018-02-17T13:29:10.382Z,13.23
2018-02-17T13:31:37.932Z,17.10
2018-02-17T13:34:06.690Z,14.20
2018-02-17T13:36:35.138Z,14.60
2018-02-17T13:39:02.685Z,12.40
2018-02-17T13:41:31.743Z,13.50
2018-02-17T13:43:59.264Z,12.70
2018-02-17T13:46:28.386Z,18.57
2018-02-17T13:48:57.108Z,14.13
2018-02-17T13:51:24.681Z,16.47
2018-02-17T13:53:53.130Z,15.80
2018-02-17T13:56:22.040Z,13.10
2018-02-17T13:58:50.127Z,13.23
2018-02-17T14:01:18.045Z,14.60
2018-02-17T14:03:46.354Z,16.53
2018-02-17T14:06:15.459Z,10.83
2018-02-17T14:08:43.137Z,16.63
2018-02-17T14:11:11.409Z,14.17
2018-02-17T14:13:39.119Z,13.10
2018-02-17T14:16:07.665Z,15.10
2018-02-17T14:18:35.245Z,17.53
2018-02-17T14:21:02.822Z,16.37
2018-02-17T14:23:32.042Z,18.40
2018-02-17T14:26:00.434Z,18.33
2018-02-17T14:28:27.986Z,16.90
2018-02-17T14:30:56.274Z,14.77
2018-02-17T14:33:24.587Z,14.40
2018-02-17T14:35:52.881Z,17.33
2018-02-17T14:38:21.180Z,11.97
2018-02-17T14:40:48.693Z,14.27
2018-02-17T14:43:16.643Z,12.50
2018-02-17T14:45:44.957Z,17.60
2018-02-17T14:48:13.804Z,15.37
2018-02-17T14:50:43.542Z,14.23
2018-02-17T14:53:11.732Z,17.83
2018-02-17T14:55:39.671Z,15.37
2018-02-17T14:58:07.223Z,16.93
2018-02-17T15:00:35.172Z,14.83
2018-02-17T15:03:03.463Z,14.03
2018-02-17T15:05:31.874Z,14.90
2018-02-17T15:08:00.158Z,14.67
2018-02-17T15:10:27.710Z,17.13
2018-02-17T15:12:55.988Z,15.30
2018-02-17T15:15:23.934Z,13.23
2018-02-17T15:17:52.225Z,16.70
2018-02-17T15:20:20.554Z,19.53
2018-02-17T15:22:48.878Z,14.60
2018-02-17T15:25:17.235Z,23.23
2018-02-17T15:27:45.537Z,14.50
2018-02-17T15:30:13.853Z,12.73
2018-02-17T15:32:42.945Z,15.80
2018-02-17T15:35:10.511Z,15.30
2018-02-17T15:37:39.549Z,16.43
2018-02-17T15:40:07.859Z,12.43
2018-02-17T15:42:36.512Z,11.17
2018-02-17T15:45:04.063Z,11.87
2018-02-17T15:47:31.581Z,9.60
2018-02-17T15:49:59.881Z,9.20
2018-02-17T15:52:27.810Z,9.70
2018-02-17T15:54:56.358Z,10.60
2018-02-17T15:57:24.654Z,8.80
2018-02-17T15:59:52.957Z,11.07
2018-02-17T16:02:21.295Z,9.37
2018-02-17T16:04:49.705Z,8.77
2018-02-17T16:07:17.969Z,7.47
2018-02-17T16:09:46.833Z,9.27
2018-02-17T16:12:15.688Z,7.13
2018-02-17T16:14:44.116Z,7.10
2018-02-17T16:17:12.078Z,5.90
2018-02-17T16:19:40.883Z,8.50
2018-02-17T16:22:08.424Z,5.77
2018-02-17T16:24:36.710Z,6.83
2018-02-17T16:27:05.513Z,12.77
2018-02-17T16:29:33.826Z,8.60
2018-02-17T16:32:02.938Z,9.67
2018-02-17T16:34:31.362Z,7.80
2018-02-17T16:36:59.731Z,8.83
2018-02-17T16:39:28.044Z,6.67
2018-02-17T16:41:56.318Z,8.20
2018-02-17T16:44:23.862Z,8.87
2018-02-17T16:46:52.171Z,10.97
2018-02-17T16:49:21.260Z,15.93
2018-02-17T16:51:48.810Z,9.00
2018-02-17T16:54:18.006Z,10.03
2018-02-17T16:56:45.551Z,9.07
2018-02-17T16:59:13.828Z,8.23
2018-02-17T17:01:42.177Z,9.07
2018-02-17T17:04:10.467Z,8.60
2018-02-17T17:06:38.010Z,7.07
2018-02-17T17:09:05.927Z,9.47
2018-02-17T17:11:35.658Z,8.33
2018-02-17T17:14:04.950Z,12.00
2018-02-17T17:16:32.504Z,9.30
2018-02-17T17:19:00.774Z,12.40
2018-02-17T17:21:29.810Z,11.67
2018-02-17T17:23:57.760Z,11.00
2018-02-17T17:26:25.314Z,8.87
2018-02-17T17:28:54.417Z,10.27
2018-02-17T17:31:21.988Z,10.40
2018-02-17T17:33:49.512Z,10.10
2018-02-17T17:36:17.445Z,12.70
2018-02-17T17:38:45.510Z,13.80
2018-02-17T17:41:13.051Z,14.33
2018-02-17T17:43:40.652Z,11.27
2018-02-17T17:46:08.609Z,14.90
2018-02-17T17:48:36.906Z,12.40
2018-02-17T17:51:05.182Z,14.80
2018-02-17T17:53:32.730Z,12.53
2018-02-17T17:56:01.341Z,13.90
2018-02-17T17:58:28.890Z,13.37
2018-02-17T18:00:57.185Z,15.20
2018-02-17T18:03:24.773Z,12.10
2018-02-17T18:05:52.342Z,14.53
2018-02-17T18:08:19.914Z,13.53
2018-02-17T18:10:47.490Z,15.03
2018-02-17T18:13:15.074Z,16.63
2018-02-17T18:15:42.846Z,16.40
2018-02-17T18:18:10.451Z,14.80
2018-02-17T18:20:37.998Z,16.57
2018-02-17T18:23:05.547Z,14.97
2018-02-17T18:25:33.070Z,15.40
2018-02-17T18:28:00.618Z,21.67
2018-02-17T18:30:28.957Z,21.53
2018-02-17T18:32:56.515Z,19.67
2018-02-17T18:35:24.768Z,19.13
2018-02-17T18:37:53.128Z,20.40
2018-02-17T18:40:20.657Z,18.57
2018-02-17T18:42:49.486Z,17.20
2018-02-17T18:45:19.241Z,17.13
2018-02-17T18:47:46.798Z,16.00
2018-02-17T18:50:14.357Z,14.70
2018-02-17T18:52:41.900Z,16.50
2018-02-17T18:55:10.136Z,13.87
2018-02-17T18:57:37.663Z,12.97
2018-02-17T19:00:05.214Z,12.60
2018-02-17T19:02:32.742Z,14.87
2018-02-17T19:05:00.299Z,18.17
2018-02-17T19:07:28.591Z,20.87
2018-02-17T19:09:57.715Z,14.23
2018-02-17T19:12:26.018Z,33.63
2018-02-17T19:14:53.919Z,16.70
2018-02-17T19:17:22.305Z,20.20
2018-02-17T19:19:49.842Z,14.90
2018-02-17T19:22:17.368Z,15.60
2018-02-17T19:24:44.912Z,14.53
2018-02-17T19:27:12.439Z,14.47
2018-02-17T19:29:39.985Z,15.80
2018-02-17T19:32:07.578Z,19.20
2018-02-17T19:34:35.152Z,18.57
2018-02-17T19:37:02.726Z,18.10
2018-02-17T19:39:31.119Z,17.30
2018-02-17T19:41:58.640Z,17.43
2018-02-17T19:44:26.190Z,22.93
2018-02-17T19:46:54.486Z,18.97
2018-02-17T19:49:22.027Z,19.80
2018-02-17T19:51:50.884Z,18.77
2018-02-17T19:54:18.429Z,19.80
2018-02-17T19:56:45.963Z,19.83
2018-02-17T19:59:14.241Z,22.87
2018-02-17T20:01:42.591Z,21.10
2018-02-17T20:04:10.138Z,21.63
2018-02-17T20:06:37.661Z,23.33
2018-02-17T20:09:06.577Z,21.10
2018-02-17T20:11:34.105Z,20.73
2018-02-17T20:14:02.637Z,23.83
2018-02-17T20:16:30.932Z,22.87
2018-02-17T20:18:58.730Z,23.20
2018-02-17T20:21:26.264Z,23.40
2018-02-17T20:23:53.826Z,24.17
2018-02-17T20:26:22.246Z,27.93
2018-02-17T20:28:49.793Z,25.03
2018-02-17T20:31:17.423Z,26.90
2018-02-17T20:33:45.375Z,26.07
2018-02-17T20:36:13.321Z,23.30
2018-02-17T20:38:41.386Z,25.27
2018-02-17T20:41:08.943Z,26.57
2018-02-17T20:43:36.469Z,28.00
2018-02-17T20:46:04.001Z,29.33
2018-02-17T20:48:32.838Z,29.30
2018-02-17T20:51:00.383Z,34.80
2018-02-17T20:53:27.954Z,34.73
2018-02-17T20:55:56.295Z,27.47
2018-02-17T20:58:24.582Z,31.80
2018-02-17T21:00:52.260Z,30.60
2018-02-17T21:03:19.791Z,32.50
2018-02-17T21:05:47.330Z,27.13
2018-02-17T21:08:14.854Z,33.37
2018-02-17T21:10:43.774Z,42.90
2018-02-17T21:13:11.314Z,35.03
2018-02-17T21:15:39.783Z,31.43
2018-02-17T21:18:08.602Z,34.37
2018-02-17T21:20:38.808Z,33.03
2018-02-17T21:23:06.347Z,32.37
2018-02-17T21:25:33.909Z,30.70
2018-02-17T21:28:02.884Z,31.20
2018-02-17T21:30:30.430Z,31.80
2018-02-17T21:32:57.981Z,36.97
2018-02-17T21:35:25.849Z,31.57
2018-02-17T21:37:53.396Z,34.63
2018-02-17T21:40:21.090Z,31.43
2018-02-17T21:42:48.622Z,40.13
2018-02-17T21:45:16.922Z,31.13
2018-02-17T21:47:44.846Z,34.60
2018-02-17T21:50:13.671Z,34.30
2018-02-17T21:52:41.965Z,36.20
2018-02-17T21:55:09.903Z,34.30
2018-02-17T21:57:37.442Z,34.57
2018-02-17T22:00:05.366Z,37.70
2018-02-17T22:02:32.918Z,31.30
2018-02-17T22:05:01.944Z,30.37
2018-02-17T22:07:30.541Z,35.27
2018-02-17T22:09:59.814Z,38.80
2018-02-17T22:12:27.759Z,34.77
2018-02-17T22:14:56.075Z,36.03
2018-02-17T22:17:23.630Z,33.30
2018-02-17T22:19:51.156Z,39.73
2018-02-17T22:22:19.465Z,45.13
2018-02-17T22:24:47.010Z,37.37
2018-02-17T22:27:14.556Z,32.97
2018-02-17T22:29:43.792Z,36.43
2018-02-17T22:32:11.351Z,35.40
2018-02-17T22:34:38.890Z,41.83
2018-02-17T22:37:07.149Z,41.50
2018-02-17T22:39:34.683Z,38.30
2018-02-17T22:42:02.255Z,34.23
2018-02-17T22:44:29.799Z,38.07
2018-02-17T22:46:57.346Z,34.30
2018-02-17T22:49:24.877Z,36.77
2018-02-17T22:51:52.424Z,39.17
2018-02-17T22:54:19.963Z,36.53
2018-02-17T22:56:47.502Z,32.93
2018-02-17T22:59:15.067Z,35.03
2018-02-17T23:01:42.625Z,37.43
2018-02-17T23:04:11.575Z,33.00
2018-02-17T23:06:39.146Z,33.50
2018-02-17T23:09:06.683Z,35.23
2018-02-17T23:11:34.264Z,37.00
2018-02-17T23:14:01.799Z,34.90
2018-02-17T23:16:29.355Z,35.30
2018-02-17T23:18:57.294Z,41.97
2018-02-17T23:21:24.830Z,39.93
2018-02-17T23:23:52.393Z,34.93
2018-02-17T23:26:20.686Z,33.57
2018-02-17T23:28:48.233Z,43.23
2018-02-17T23:31:15.763Z,36.27
2018-02-17T23:33:43.323Z,40.00
2018-02-17T23:36:10.878Z,36.13
2018-02-17T23:38:38.763Z,39.27
2018-02-17T23:41:07.377Z,29.70
2018-02-17T23:43:34.939Z,33.50
2018-02-17T23:46:02.862Z,34.10
2018-02-17T23:48:30.407Z,35.17
2018-02-17T23:50:58.691Z,29.97
2018-02-17T23:53:26.245Z,36.90
2018-02-17T23:55:53.774Z,35.73
2018-02-17T23:58:21.324Z,37.40
